Aviation Digital Data Service (ADDS)

Output produced by METARs form (1259 UTC 23 September 2018)
found at http://www.aviationweather.gov/metar/data/
 
METAR text: EFUT 231250Z AUTO 23010KT 180V280 9999 -RA SCT039 SCT062 11/06 Q0995
Conditions at: EFUT (UTTI (FIN-AFB) , FI) observed 1250 UTC 23 September 2018
Temperature: 11.0°C (52°F)
Dewpoint: 6.0°C (43°F) [RH = 71%]
Pressure (altimeter): 29.38 inches Hg (995.0 mb)
Winds: from the SW (230 degrees) at 12 MPH (10 knots; 5.1 m/s)
Visibility: 6 or more miles (10+ km)
Ceiling: at least 12,000 feet AGL
Clouds: scattered clouds at 3900 feet AGL
scattered clouds at 6200 feet AGL
Weather: -RA  (light rain)